sensor_id;sensor_type;location;lat;lon;timestamp;P1;durP1;ratioP1;P2;durP2;ratioP2
1412;SDS011;701;52.526;13.408;2023-03-20T00:00:47;8.90;;;3.27;;
1412;SDS011;701;52.526;13.408;2023-03-20T00:03:16;7.43;;;3.10;;
1412;SDS011;701;52.526;13.408;2023-03-20T00:05:42;7.40;;;3.58;;
1412;SDS011;701;52.526;13.408;2023-03-20T00:08:08;6.43;;;3.50;;
1412;SDS011;701;52.526;13.408;2023-03-20T00:10:36;9.40;;;3.67;;
1412;SDS011;701;52.526;13.408;2023-03-20T00:13:06;7.70;;;3.13;;
1412;SDS011;701;52.526;13.408;2023-03-20T00:15:40;7.30;;;3.30;;
1412;SDS011;701;52.526;13.408;2023-03-20T00:21:00;8.13;;;3.63;;
1412;SDS011;701;52.526;13.408;2023-03-20T00:23:26;8.17;;;3.57;;
1412;SDS011;701;52.526;13.408;2023-03-20T00:25:52;8.65;;;3.83;;
1412;SDS011;701;52.526;13.408;2023-03-20T00:28:28;16.70;;;3.65;;
1412;SDS011;701;52.526;13.408;2023-03-20T00:31:10;7.43;;;3.70;;
1412;SDS011;701;52.526;13.408;2023-03-20T00:33:41;8.43;;;3.90;;
1412;SDS011;701;52.526;13.408;2023-03-20T00:36:07;8.82;;;3.60;;
1412;SDS011;701;52.526;13.408;2023-03-20T00:38:33;10.80;;;3.83;;
1412;SDS011;701;52.526;13.408;2023-03-20T00:40:59;8.67;;;3.90;;
1412;SDS011;701;52.526;13.408;2023-03-20T00:43:25;11.30;;;4.38;;
1412;SDS011;701;52.526;13.408;2023-03-20T00:45:51;9.43;;;4.03;;
1412;SDS011;701;52.526;13.408;2023-03-20T00:48:17;7.68;;;3.95;;
1412;SDS011;701;52.526;13.408;2023-03-20T00:50:43;8.97;;;4.03;;
1412;SDS011;701;52.526;13.408;2023-03-20T00:53:10;8.27;;;4.10;;
1412;SDS011;701;52.526;13.408;2023-03-20T00:55:36;8.55;;;4.20;;
1412;SDS011;701;52.526;13.408;2023-03-20T00:58:04;8.73;;;4.32;;
1412;SDS011;701;52.526;13.408;2023-03-20T01:03:12;10.45;;;3.95;;
1412;SDS011;701;52.526;13.408;2023-03-20T01:05:41;9.55;;;4.60;;
1412;SDS011;701;52.526;13.408;2023-03-20T01:08:14;7.22;;;3.85;;
1412;SDS011;701;52.526;13.408;2023-03-20T01:10:43;9.90;;;4.53;;
1412;SDS011;701;52.526;13.408;2023-03-20T01:13:16;9.68;;;4.75;;
1412;SDS011;701;52.526;13.408;2023-03-20T01:15:42;10.32;;;4.43;;
1412;SDS011;701;52.526;13.408;2023-03-20T01:18:11;9.30;;;4.38;;
1412;SDS011;701;52.526;13.408;2023-03-20T01:20:38;9.68;;;4.30;;
1412;SDS011;701;52.526;13.408;2023-03-20T01:23:04;8.82;;;4.43;;
1412;SDS011;701;52.526;13.408;2023-03-20T01:25:30;8.43;;;4.60;;
1412;SDS011;701;52.526;13.408;2023-03-20T01:27:56;10.23;;;4.40;;
1412;SDS011;701;52.526;13.408;2023-03-20T01:30:30;11.20;;;4.40;;
1412;SDS011;701;52.526;13.408;2023-03-20T01:32:59;10.93;;;4.45;;
1412;SDS011;701;52.526;13.408;2023-03-20T01:35:27;9.70;;;4.43;;
1412;SDS011;701;52.526;13.408;2023-03-20T01:37:56;10.75;;;4.68;;
1412;SDS011;701;52.526;13.408;2023-03-20T01:43:09;11.18;;;4.80;;
1412;SDS011;701;52.526;13.408;2023-03-20T01:45:41;8.05;;;4.45;;
1412;SDS011;701;52.526;13.408;2023-03-20T01:48:19;9.60;;;5.00;;
1412;SDS011;701;52.526;13.408;2023-03-20T01:50:49;9.55;;;4.47;;
1412;SDS011;701;52.526;13.408;2023-03-20T01:53:22;9.85;;;4.60;;
1412;SDS011;701;52.526;13.408;2023-03-20T01:55:57;11.93;;;5.07;;
1412;SDS011;701;52.526;13.408;2023-03-20T01:58:36;9.43;;;4.55;;
1412;SDS011;701;52.526;13.408;2023-03-20T02:01:04;9.85;;;4.57;;
1412;SDS011;701;52.526;13.408;2023-03-20T02:03:34;9.00;;;4.63;;
1412;SDS011;701;52.526;13.408;2023-03-20T02:06:12;9.98;;;4.57;;
1412;SDS011;701;52.526;13.408;2023-03-20T02:09:02;9.95;;;4.75;;
1412;SDS011;701;52.526;13.408;2023-03-20T02:11:34;10.27;;;4.75;;
1412;SDS011;701;52.526;13.408;2023-03-20T02:14:02;11.20;;;5.28;;
1412;SDS011;701;52.526;13.408;2023-03-20T02:16:37;9.27;;;4.50;;
1412;SDS011;701;52.526;13.408;2023-03-20T02:19:09;11.32;;;4.70;;
1412;SDS011;701;52.526;13.408;2023-03-20T02:21:47;10.65;;;4.55;;
1412;SDS011;701;52.526;13.408;2023-03-20T02:44:51;11.83;;;4.90;;
1412;SDS011;701;52.526;13.408;2023-03-20T02:47:37;9.18;;;4.82;;
1412;SDS011;701;52.526;13.408;2023-03-20T02:50:18;9.15;;;4.97;;
1412;SDS011;701;52.526;13.408;2023-03-20T02:53:13;8.07;;;4.35;;
1412;SDS011;701;52.526;13.408;2023-03-20T03:00:46;8.68;;;4.60;;
1412;SDS011;701;52.526;13.408;2023-03-20T03:06:26;10.68;;;5.03;;
1412;SDS011;701;52.526;13.408;2023-03-20T03:09:05;8.60;;;4.72;;
1412;SDS011;701;52.526;13.408;2023-03-20T03:11:33;10.67;;;4.87;;
1412;SDS011;701;52.526;13.408;2023-03-20T03:14:02;10.75;;;5.22;;
1412;SDS011;701;52.526;13.408;2023-03-20T03:16:31;10.05;;;5.05;;
1412;SDS011;701;52.526;13.408;2023-03-20T03:19:02;8.43;;;4.80;;
1412;SDS011;701;52.526;13.408;2023-03-20T03:21:34;13.82;;;5.45;;
1412;SDS011;701;52.526;13.408;2023-03-20T03:24:03;9.57;;;5.23;;
1412;SDS011;701;52.526;13.408;2023-03-20T03:26:31;11.93;;;5.00;;
1412;SDS011;701;52.526;13.408;2023-03-20T03:29:05;10.30;;;4.88;;
1412;SDS011;701;52.526;13.408;2023-03-20T03:31:41;10.73;;;4.60;;
1412;SDS011;701;52.526;13.408;2023-03-20T03:34:12;10.35;;;5.10;;
1412;SDS011;701;52.526;13.408;2023-03-20T03:44:30;10.77;;;5.13;;
1412;SDS011;701;52.526;13.408;2023-03-20T03:47:06;13.10;;;5.88;;
1412;SDS011;701;52.526;13.408;2023-03-20T03:49:41;12.77;;;5.87;;
1412;SDS011;701;52.526;13.408;2023-03-20T03:52:17;10.52;;;5.35;;
1412;SDS011;701;52.526;13.408;2023-03-20T03:54:58;11.23;;;5.50;;
1412;SDS011;701;52.526;13.408;2023-03-20T03:57:36;11.93;;;5.45;;
1412;SDS011;701;52.526;13.408;2023-03-20T04:00:23;9.38;;;5.43;;
1412;SDS011;701;52.526;13.408;2023-03-20T04:02:51;11.17;;;5.80;;
1412;SDS011;701;52.526;13.408;2023-03-20T04:05:20;11.25;;;6.30;;
1412;SDS011;701;52.526;13.408;2023-03-20T04:07:51;12.48;;;6.80;;
1412;SDS011;701;52.526;13.408;2023-03-20T04:10:19;10.30;;;6.10;;
1412;SDS011;701;52.526;13.408;2023-03-20T04:12:45;12.07;;;6.15;;
1412;SDS011;701;52.526;13.408;2023-03-20T04:15:12;12.50;;;6.60;;
1412;SDS011;701;52.526;13.408;2023-03-20T04:17:39;12.35;;;6.72;;
1412;SDS011;701;52.526;13.408;2023-03-20T04:20:07;10.27;;;6.40;;
1412;SDS011;701;52.526;13.408;2023-03-20T04:22:34;14.07;;;6.93;;
1412;SDS011;701;52.526;13.408;2023-03-20T04:25:09;12.20;;;7.10;;
1412;SDS011;701;52.526;13.408;2023-03-20T04:27:44;12.95;;;7.28;;
1412;SDS011;701;52.526;13.408;2023-03-20T04:30:18;12.55;;;7.05;;
1412;SDS011;701;52.526;13.408;2023-03-20T04:33:03;12.52;;;7.55;;
1412;SDS011;701;52.526;13.408;2023-03-20T04:35:40;14.48;;;7.50;;
1412;SDS011;701;52.526;13.408;2023-03-20T04:38:10;13.33;;;7.33;;
1412;SDS011;701;52.526;13.408;2023-03-20T04:40:37;14.30;;;7.53;;
1412;SDS011;701;52.526;13.408;2023-03-20T04:43:03;13.88;;;7.45;;
1412;SDS011;701;52.526;13.408;2023-03-20T04:45:29;13.02;;;7.55;;
1412;SDS011;701;52.526;13.408;2023-03-20T04:47:55;14.00;;;7.70;;
1412;SDS011;701;52.526;13.408;2023-03-20T04:50:21;14.63;;;7.88;;
1412;SDS011;701;52.526;13.408;2023-03-20T04:52:49;15.35;;;7.90;;
1412;SDS011;701;52.526;13.408;2023-03-20T04:55:15;13.30;;;7.70;;
1412;SDS011;701;52.526;13.408;2023-03-20T04:57:44;12.57;;;7.70;;
1412;SDS011;701;52.526;13.408;2023-03-20T05:00:11;15.75;;;7.72;;
1412;SDS011;701;52.526;13.408;2023-03-20T05:02:37;12.50;;;7.57;;
1412;SDS011;701;52.526;13.408;2023-03-20T05:05:03;15.68;;;7.68;;
1412;SDS011;701;52.526;13.408;2023-03-20T05:07:33;14.97;;;7.97;;
1412;SDS011;701;52.526;13.408;2023-03-20T05:10:04;12.88;;;6.93;;
1412;SDS011;701;52.526;13.408;2023-03-20T05:12:36;12.68;;;7.47;;
1412;SDS011;701;52.526;13.408;2023-03-20T05:15:10;17.00;;;8.07;;
1412;SDS011;701;52.526;13.408;2023-03-20T05:17:48;14.80;;;8.13;;
1412;SDS011;701;52.526;13.408;2023-03-20T05:20:32;13.07;;;7.97;;
1412;SDS011;701;52.526;13.408;2023-03-20T05:23:04;15.70;;;8.40;;
1412;SDS011;701;52.526;13.408;2023-03-20T05:25:47;13.98;;;7.60;;
1412;SDS011;701;52.526;13.408;2023-03-20T05:28:23;17.15;;;7.72;;
1412;SDS011;701;52.526;13.408;2023-03-20T05:31:05;16.60;;;8.13;;
1412;SDS011;701;52.526;13.408;2023-03-20T05:33:41;15.13;;;8.37;;
1412;SDS011;701;52.526;13.408;2023-03-20T05:36:16;13.38;;;8.40;;
1412;SDS011;701;52.526;13.408;2023-03-20T05:38:52;14.95;;;8.77;;
1412;SDS011;701;52.526;13.408;2023-03-20T05:41:47;14.43;;;8.13;;
1412;SDS011;701;52.526;13.408;2023-03-20T05:44:39;13.95;;;8.02;;
1412;SDS011;701;52.526;13.408;2023-03-20T05:47:40;16.37;;;9.00;;
1412;SDS011;701;52.526;13.408;2023-03-20T05:50:35;16.35;;;9.02;;
1412;SDS011;701;52.526;13.408;2023-03-20T05:53:14;15.40;;;8.60;;
1412;SDS011;701;52.526;13.408;2023-03-20T05:55:52;19.70;;;10.68;;
1412;SDS011;701;52.526;13.408;2023-03-20T05:58:37;18.58;;;10.18;;
1412;SDS011;701;52.526;13.408;2023-03-20T06:01:26;19.57;;;10.20;;
1412;SDS011;701;52.526;13.408;2023-03-20T06:04:01;18.05;;;11.02;;
1412;SDS011;701;52.526;13.408;2023-03-20T06:07:02;17.38;;;10.30;;
1412;SDS011;701;52.526;13.408;2023-03-20T06:09:29;21.45;;;11.02;;
1412;SDS011;701;52.526;13.408;2023-03-20T06:11:56;26.00;;;10.90;;
1412;SDS011;701;52.526;13.408;2023-03-20T06:14:22;21.43;;;11.63;;
1412;SDS011;701;52.526;13.408;2023-03-20T06:16:54;20.88;;;11.32;;
1412;SDS011;701;52.526;13.408;2023-03-20T06:19:21;19.58;;;11.88;;
1412;SDS011;701;52.526;13.408;2023-03-20T06:21:48;21.50;;;12.33;;
1412;SDS011;701;52.526;13.408;2023-03-20T06:24:17;26.90;;;12.88;;
1412;SDS011;701;52.526;13.408;2023-03-20T06:26:43;21.83;;;12.65;;
1412;SDS011;701;52.526;13.408;2023-03-20T06:29:11;17.73;;;10.90;;
1412;SDS011;701;52.526;13.408;2023-03-20T06:31:37;21.10;;;11.07;;
1412;SDS011;701;52.526;13.408;2023-03-20T06:34:04;21.70;;;12.43;;
1412;SDS011;701;52.526;13.408;2023-03-20T06:36:40;23.58;;;13.00;;
1412;SDS011;701;52.526;13.408;2023-03-20T06:39:13;22.92;;;12.45;;
1412;SDS011;701;52.526;13.408;2023-03-20T06:41:39;21.60;;;12.32;;
1412;SDS011;701;52.526;13.408;2023-03-20T06:44:07;22.33;;;13.20;;
1412;SDS011;701;52.526;13.408;2023-03-20T06:46:52;22.75;;;12.73;;
1412;SDS011;701;52.526;13.408;2023-03-20T06:49:18;23.77;;;13.38;;
1412;SDS011;701;52.526;13.408;2023-03-20T06:51:44;28.60;;;14.10;;
1412;SDS011;701;52.526;13.408;2023-03-20T06:54:15;27.58;;;14.27;;
1412;SDS011;701;52.526;13.408;2023-03-20T06:56:41;26.85;;;15.05;;
1412;SDS011;701;52.526;13.408;2023-03-20T06:59:07;27.25;;;15.18;;
1412;SDS011;701;52.526;13.408;2023-03-20T07:01:34;29.23;;;15.83;;
1412;SDS011;701;52.526;13.408;2023-03-20T07:04:00;29.05;;;15.20;;
1412;SDS011;701;52.526;13.408;2023-03-20T07:06:33;35.90;;;16.10;;
1412;SDS011;701;52.526;13.408;2023-03-20T07:08:59;33.75;;;15.73;;
1412;SDS011;701;52.526;13.408;2023-03-20T07:11:26;32.67;;;16.90;;
1412;SDS011;701;52.526;13.408;2023-03-20T07:13:53;35.33;;;16.38;;
1412;SDS011;701;52.526;13.408;2023-03-20T07:16:30;32.78;;;16.63;;
1412;SDS011;701;52.526;13.408;2023-03-20T07:18:56;31.98;;;16.88;;
1412;SDS011;701;52.526;13.408;2023-03-20T07:21:22;34.73;;;16.53;;
1412;SDS011;701;52.526;13.408;2023-03-20T07:23:48;30.85;;;16.02;;
1412;SDS011;701;52.526;13.408;2023-03-20T07:26:14;41.58;;;17.40;;
1412;SDS011;701;52.526;13.408;2023-03-20T07:28:40;31.77;;;16.80;;
1412;SDS011;701;52.526;13.408;2023-03-20T07:31:18;36.10;;;15.60;;
1412;SDS011;701;52.526;13.408;2023-03-20T07:33:47;30.52;;;15.43;;
1412;SDS011;701;52.526;13.408;2023-03-20T07:36:13;34.38;;;15.82;;
1412;SDS011;701;52.526;13.408;2023-03-20T07:38:40;33.47;;;16.20;;
1412;SDS011;701;52.526;13.408;2023-03-20T07:41:09;30.45;;;14.95;;
1412;SDS011;701;52.526;13.408;2023-03-20T07:43:38;33.50;;;16.90;;
1412;SDS011;701;52.526;13.408;2023-03-20T07:46:04;33.25;;;16.27;;
1412;SDS011;701;52.526;13.408;2023-03-20T07:48:33;33.67;;;15.88;;
1412;SDS011;701;52.526;13.408;2023-03-20T07:51:00;34.13;;;16.67;;
1412;SDS011;701;52.526;13.408;2023-03-20T07:53:26;31.60;;;15.13;;
1412;SDS011;701;52.526;13.408;2023-03-20T07:55:52;32.15;;;15.00;;
1412;SDS011;701;52.526;13.408;2023-03-20T07:58:18;38.77;;;15.83;;
1412;SDS011;701;52.526;13.408;2023-03-20T08:00:44;32.22;;;14.45;;
1412;SDS011;701;52.526;13.408;2023-03-20T08:03:09;35.22;;;14.68;;
1412;SDS011;701;52.526;13.408;2023-03-20T08:05:36;32.08;;;15.07;;
1412;SDS011;701;52.526;13.408;2023-03-20T08:08:02;33.03;;;14.65;;
1412;SDS011;701;52.526;13.408;2023-03-20T08:10:27;34.88;;;14.98;;
1412;SDS011;701;52.526;13.408;2023-03-20T08:12:53;32.80;;;15.60;;
1412;SDS011;701;52.526;13.408;2023-03-20T08:15:20;31.73;;;14.23;;
1412;SDS011;701;52.526;13.408;2023-03-20T08:17:46;34.63;;;15.50;;
1412;SDS011;701;52.526;13.408;2023-03-20T08:20:13;32.15;;;14.32;;
1412;SDS011;701;52.526;13.408;2023-03-20T08:22:40;39.28;;;15.68;;
1412;SDS011;701;52.526;13.408;2023-03-20T08:25:07;33.73;;;15.40;;
1412;SDS011;701;52.526;13.408;2023-03-20T08:27:34;32.65;;;15.82;;
1412;SDS011;701;52.526;13.408;2023-03-20T08:30:00;33.55;;;15.15;;
1412;SDS011;701;52.526;13.408;2023-03-20T08:32:27;33.78;;;14.70;;
1412;SDS011;701;52.526;13.408;2023-03-20T08:34:53;34.50;;;15.48;;
1412;SDS011;701;52.526;13.408;2023-03-20T08:37:20;32.65;;;14.15;;
1412;SDS011;701;52.526;13.408;2023-03-20T08:39:46;32.15;;;14.43;;
1412;SDS011;701;52.526;13.408;2023-03-20T08:42:12;30.05;;;13.90;;
1412;SDS011;701;52.526;13.408;2023-03-20T08:44:39;34.78;;;14.77;;
1412;SDS011;701;52.526;13.408;2023-03-20T08:47:05;33.00;;;14.40;;
1412;SDS011;701;52.526;13.408;2023-03-20T08:49:34;34.80;;;14.43;;
1412;SDS011;701;52.526;13.408;2023-03-20T08:52:01;31.40;;;14.65;;
1412;SDS011;701;52.526;13.408;2023-03-20T08:54:28;28.95;;;13.90;;
1412;SDS011;701;52.526;13.408;2023-03-20T08:56:54;28.55;;;14.10;;
1412;SDS011;701;52.526;13.408;2023-03-20T08:59:20;30.73;;;13.70;;
1412;SDS011;701;52.526;13.408;2023-03-20T09:01:46;28.40;;;13.32;;
1412;SDS011;701;52.526;13.408;2023-03-20T09:04:12;32.00;;;13.00;;
1412;SDS011;701;52.526;13.408;2023-03-20T09:06:38;23.85;;;11.73;;
1412;SDS011;701;52.526;13.408;2023-03-20T09:09:05;25.37;;;12.23;;
1412;SDS011;701;52.526;13.408;2023-03-20T09:11:31;24.95;;;12.18;;
1412;SDS011;701;52.526;13.408;2023-03-20T09:13:58;23.55;;;12.07;;
1412;SDS011;701;52.526;13.408;2023-03-20T09:16:26;24.98;;;11.85;;
1412;SDS011;701;52.526;13.408;2023-03-20T09:18:52;26.42;;;12.45;;
1412;SDS011;701;52.526;13.408;2023-03-20T09:21:18;24.27;;;12.50;;
1412;SDS011;701;52.526;13.408;2023-03-20T09:23:44;23.58;;;12.02;;
1412;SDS011;701;52.526;13.408;2023-03-20T09:26:09;24.30;;;12.23;;
1412;SDS011;701;52.526;13.408;2023-03-20T09:28:35;23.27;;;11.55;;
1412;SDS011;701;52.526;13.408;2023-03-20T09:31:01;21.93;;;11.23;;
1412;SDS011;701;52.526;13.408;2023-03-20T09:33:27;21.40;;;10.55;;
1412;SDS011;701;52.526;13.408;2023-03-20T09:35:53;21.70;;;10.85;;
1412;SDS011;701;52.526;13.408;2023-03-20T09:38:19;22.02;;;10.68;;
1412;SDS011;701;52.526;13.408;2023-03-20T09:40:49;20.47;;;10.57;;
1412;SDS011;701;52.526;13.408;2023-03-20T09:51:59;20.85;;;9.68;;
1412;SDS011;701;52.526;13.408;2023-03-20T09:54:37;20.57;;;9.10;;
1412;SDS011;701;52.526;13.408;2023-03-20T09:57:05;21.13;;;8.85;;
1412;SDS011;701;52.526;13.408;2023-03-20T09:59:42;18.83;;;9.77;;
1412;SDS011;701;52.526;13.408;2023-03-20T10:02:13;17.67;;;9.70;;
1412;SDS011;701;52.526;13.408;2023-03-20T10:04:48;21.07;;;9.27;;
1412;SDS011;701;52.526;13.408;2023-03-20T10:07:17;18.40;;;9.10;;
1412;SDS011;701;52.526;13.408;2023-03-20T10:09:45;18.40;;;8.75;;
1412;SDS011;701;52.526;13.408;2023-03-20T10:15:37;16.67;;;7.68;;
1412;SDS011;701;52.526;13.408;2023-03-20T10:18:21;15.87;;;7.70;;
1412;SDS011;701;52.526;13.408;2023-03-20T10:20:54;18.23;;;8.07;;
1412;SDS011;701;52.526;13.408;2023-03-20T10:26:10;17.08;;;7.85;;
1412;SDS011;701;52.526;13.408;2023-03-20T10:42:47;14.05;;;6.68;;
1412;SDS011;701;52.526;13.408;2023-03-20T10:48:33;15.32;;;6.55;;
1412;SDS011;701;52.526;13.408;2023-03-20T10:51:45;14.23;;;7.15;;
1412;SDS011;701;52.526;13.408;2023-03-20T10:54:10;13.95;;;6.50;;
1412;SDS011;701;52.526;13.408;2023-03-20T10:57:00;15.13;;;6.60;;
1412;SDS011;701;52.526;13.408;2023-03-20T10:59:31;16.87;;;6.67;;
1412;SDS011;701;52.526;13.408;2023-03-20T11:02:20;16.08;;;6.50;;
1412;SDS011;701;52.526;13.408;2023-03-20T11:04:47;14.55;;;6.10;;
1412;SDS011;701;52.526;13.408;2023-03-20T11:12:34;15.37;;;6.17;;
1412;SDS011;701;52.526;13.408;2023-03-20T11:15:15;15.27;;;6.47;;
1412;SDS011;701;52.526;13.408;2023-03-20T11:18:00;12.80;;;5.63;;
1412;SDS011;701;52.526;13.408;2023-03-20T11:20:33;13.50;;;6.15;;
1412;SDS011;701;52.526;13.408;2023-03-20T11:23:05;12.98;;;5.80;;
1412;SDS011;701;52.526;13.408;2023-03-20T11:25:38;12.87;;;5.73;;
1412;SDS011;701;52.526;13.408;2023-03-20T11:28:24;12.10;;;5.63;;
1412;SDS011;701;52.526;13.408;2023-03-20T11:34:18;13.15;;;5.80;;
1412;SDS011;701;52.526;13.408;2023-03-20T11:36:58;14.27;;;6.32;;
1412;SDS011;701;52.526;13.408;2023-03-20T11:39:27;12.93;;;6.23;;
1412;SDS011;701;52.526;13.408;2023-03-20T11:41:57;12.82;;;5.72;;
1412;SDS011;701;52.526;13.408;2023-03-20T11:44:27;14.48;;;6.10;;
1412;SDS011;701;52.526;13.408;2023-03-20T11:46:56;13.25;;;6.13;;
1412;SDS011;701;52.526;13.408;2023-03-20T11:49:24;13.23;;;5.88;;
1412;SDS011;701;52.526;13.408;2023-03-20T11:51:52;14.10;;;6.43;;
1412;SDS011;701;52.526;13.408;2023-03-20T11:54:21;13.70;;;6.57;;
1412;SDS011;701;52.526;13.408;2023-03-20T11:56:58;13.85;;;6.88;;
1412;SDS011;701;52.526;13.408;2023-03-20T11:59:28;14.70;;;5.95;;
1412;SDS011;701;52.526;13.408;2023-03-20T12:01:58;17.63;;;6.78;;
1412;SDS011;701;52.526;13.408;2023-03-20T12:04:30;14.17;;;6.13;;
1412;SDS011;701;52.526;13.408;2023-03-20T12:06:58;12.43;;;6.07;;
1412;SDS011;701;52.526;13.408;2023-03-20T12:09:39;13.20;;;6.28;;
1412;SDS011;701;52.526;13.408;2023-03-20T12:12:12;15.15;;;6.18;;
1412;SDS011;701;52.526;13.408;2023-03-20T12:15:00;18.10;;;6.47;;
1412;SDS011;701;52.526;13.408;2023-03-20T12:18:15;14.33;;;6.60;;
1412;SDS011;701;52.526;13.408;2023-03-20T12:23:11;15.40;;;6.50;;
1412;SDS011;701;52.526;13.408;2023-03-20T12:25:50;14.88;;;7.20;;
1412;SDS011;701;52.526;13.408;2023-03-20T12:36:38;15.65;;;6.85;;
1412;SDS011;701;52.526;13.408;2023-03-20T12:39:17;18.73;;;7.00;;
1412;SDS011;701;52.526;13.408;2023-03-20T12:47:03;15.73;;;7.07;;
1412;SDS011;701;52.526;13.408;2023-03-20T13:00:23;16.75;;;7.90;;
1412;SDS011;701;52.526;13.408;2023-03-20T13:03:05;17.70;;;7.85;;
1412;SDS011;701;52.526;13.408;2023-03-20T13:05:59;16.52;;;7.40;;
1412;SDS011;701;52.526;13.408;2023-03-20T13:11:12;19.23;;;7.95;;
1412;SDS011;701;52.526;13.408;2023-03-20T13:16:44;20.73;;;8.10;;
1412;SDS011;701;52.526;13.408;2023-03-20T13:19:26;16.40;;;8.07;;
1412;SDS011;701;52.526;13.408;2023-03-20T13:22:13;16.90;;;7.53;;
1412;SDS011;701;52.526;13.408;2023-03-20T13:25:24;21.05;;;8.38;;
1412;SDS011;701;52.526;13.408;2023-03-20T13:27:48;15.70;;;7.78;;
1412;SDS011;701;52.526;13.408;2023-03-20T13:30:28;18.52;;;8.00;;
1412;SDS011;701;52.526;13.408;2023-03-20T13:36:09;17.47;;;8.17;;
1412;SDS011;701;52.526;13.408;2023-03-20T13:39:00;18.20;;;8.60;;
1412;SDS011;701;52.526;13.408;2023-03-20T13:41:38;17.70;;;8.93;;
1412;SDS011;701;52.526;13.408;2023-03-20T13:44:04;19.65;;;9.07;;
1412;SDS011;701;52.526;13.408;2023-03-20T13:46:39;22.10;;;9.30;;
1412;SDS011;701;52.526;13.408;2023-03-20T13:49:13;22.38;;;8.85;;
1412;SDS011;701;52.526;13.408;2023-03-20T13:51:48;19.67;;;9.55;;
1412;SDS011;701;52.526;13.408;2023-03-20T14:05:49;20.75;;;8.80;;
1412;SDS011;701;52.526;13.408;2023-03-20T14:10:55;23.05;;;9.77;;
1412;SDS011;701;52.526;13.408;2023-03-20T14:13:35;19.67;;;8.82;;
1412;SDS011;701;52.526;13.408;2023-03-20T14:16:02;19.58;;;9.90;;
1412;SDS011;701;52.526;13.408;2023-03-20T14:18:32;18.08;;;8.43;;
1412;SDS011;701;52.526;13.408;2023-03-20T14:20:58;19.57;;;9.10;;
1412;SDS011;701;52.526;13.408;2023-03-20T14:23:36;19.90;;;9.20;;
1412;SDS011;701;52.526;13.408;2023-03-20T14:28:52;23.05;;;9.73;;
1412;SDS011;701;52.526;13.408;2023-03-20T14:31:30;18.37;;;9.30;;
1412;SDS011;701;52.526;13.408;2023-03-20T14:40:00;21.25;;;9.55;;
1412;SDS011;701;52.526;13.408;2023-03-20T14:45:34;18.73;;;8.43;;
1412;SDS011;701;52.526;13.408;2023-03-20T14:48:40;19.77;;;9.02;;
1412;SDS011;701;52.526;13.408;2023-03-20T14:51:36;19.80;;;8.93;;
1412;SDS011;701;52.526;13.408;2023-03-20T14:56:47;19.73;;;9.20;;
1412;SDS011;701;52.526;13.408;2023-03-20T14:59:15;20.97;;;9.73;;
1412;SDS011;701;52.526;13.408;2023-03-20T15:01:43;24.70;;;9.52;;
1412;SDS011;701;52.526;13.408;2023-03-20T15:06:48;22.48;;;9.77;;
1412;SDS011;701;52.526;13.408;2023-03-20T15:09:20;22.42;;;10.05;;
1412;SDS011;701;52.526;13.408;2023-03-20T15:11:47;27.23;;;9.90;;
1412;SDS011;701;52.526;13.408;2023-03-20T15:14:17;21.77;;;9.55;;
1412;SDS011;701;52.526;13.408;2023-03-20T15:16:55;23.15;;;10.30;;
1412;SDS011;701;52.526;13.408;2023-03-20T15:19:23;21.33;;;9.98;;
1412;SDS011;701;52.526;13.408;2023-03-20T15:21:49;24.90;;;10.57;;
1412;SDS011;701;52.526;13.408;2023-03-20T15:24:22;22.87;;;9.73;;
1412;SDS011;701;52.526;13.408;2023-03-20T15:26:50;25.52;;;10.52;;
1412;SDS011;701;52.526;13.408;2023-03-20T15:29:24;23.15;;;10.63;;
1412;SDS011;701;52.526;13.408;2023-03-20T15:31:53;23.50;;;10.07;;
1412;SDS011;701;52.526;13.408;2023-03-20T15:34:22;22.20;;;9.73;;
1412;SDS011;701;52.526;13.408;2023-03-20T15:36:55;22.20;;;10.23;;
1412;SDS011;701;52.526;13.408;2023-03-20T15:39:24;21.50;;;10.45;;
1412;SDS011;701;52.526;13.408;2023-03-20T15:44:34;24.15;;;10.50;;
1412;SDS011;701;52.526;13.408;2023-03-20T15:47:03;21.87;;;9.90;;
1412;SDS011;701;52.526;13.408;2023-03-20T15:49:38;25.17;;;11.13;;
1412;SDS011;701;52.526;13.408;2023-03-20T15:52:15;22.55;;;9.85;;
1412;SDS011;701;52.526;13.408;2023-03-20T15:54:48;20.92;;;10.43;;
1412;SDS011;701;52.526;13.408;2023-03-20T15:57:23;22.30;;;10.10;;
1412;SDS011;701;52.526;13.408;2023-03-20T15:59:54;21.03;;;10.17;;
1412;SDS011;701;52.526;13.408;2023-03-20T16:02:20;24.75;;;10.82;;
1412;SDS011;701;52.526;13.408;2023-03-20T16:04:47;25.60;;;10.00;;
1412;SDS011;701;52.526;13.408;2023-03-20T16:07:20;22.60;;;10.07;;
1412;SDS011;701;52.526;13.408;2023-03-20T16:09:48;23.48;;;10.25;;
1412;SDS011;701;52.526;13.408;2023-03-20T16:12:15;20.48;;;10.02;;
1412;SDS011;701;52.526;13.408;2023-03-20T16:14:42;17.70;;;9.27;;
1412;SDS011;701;52.526;13.408;2023-03-20T16:17:09;19.33;;;9.40;;
1412;SDS011;701;52.526;13.408;2023-03-20T16:19:38;20.17;;;9.55;;
1412;SDS011;701;52.526;13.408;2023-03-20T16:22:10;22.83;;;9.83;;
1412;SDS011;701;52.526;13.408;2023-03-20T16:24:48;20.65;;;9.75;;
1412;SDS011;701;52.526;13.408;2023-03-20T16:27:37;19.45;;;9.20;;
1412;SDS011;701;52.526;13.408;2023-03-20T16:30:04;20.27;;;9.35;;
1412;SDS011;701;52.526;13.408;2023-03-20T16:32:33;24.38;;;11.75;;
1412;SDS011;701;52.526;13.408;2023-03-20T16:35:04;20.98;;;10.15;;
1412;SDS011;701;52.526;13.408;2023-03-20T16:37:45;22.30;;;9.93;;
1412;SDS011;701;52.526;13.408;2023-03-20T16:40:21;18.75;;;9.75;;
1412;SDS011;701;52.526;13.408;2023-03-20T16:42:52;21.85;;;9.38;;
1412;SDS011;701;52.526;13.408;2023-03-20T16:45:22;21.65;;;10.48;;
1412;SDS011;701;52.526;13.408;2023-03-20T16:48:16;22.13;;;10.82;;
1412;SDS011;701;52.526;13.408;2023-03-20T16:50:48;20.02;;;9.52;;
1412;SDS011;701;52.526;13.408;2023-03-20T16:53:23;18.58;;;9.75;;
1412;SDS011;701;52.526;13.408;2023-03-20T16:55:53;20.45;;;9.80;;
1412;SDS011;701;52.526;13.408;2023-03-20T16:58:26;23.27;;;10.75;;
1412;SDS011;701;52.526;13.408;2023-03-20T17:03:43;22.52;;;10.75;;
1412;SDS011;701;52.526;13.408;2023-03-20T17:11:32;22.50;;;10.55;;
1412;SDS011;701;52.526;13.408;2023-03-20T17:13:59;21.27;;;9.85;;
1412;SDS011;701;52.526;13.408;2023-03-20T17:16:26;20.85;;;10.50;;
1412;SDS011;701;52.526;13.408;2023-03-20T17:19:00;21.85;;;10.15;;
1412;SDS011;701;52.526;13.408;2023-03-20T17:21:28;20.77;;;10.27;;
1412;SDS011;701;52.526;13.408;2023-03-20T17:23:54;21.08;;;10.48;;
1412;SDS011;701;52.526;13.408;2023-03-20T17:26:20;23.77;;;10.75;;
1412;SDS011;701;52.526;13.408;2023-03-20T17:28:46;21.70;;;10.60;;
1412;SDS011;701;52.526;13.408;2023-03-20T17:31:12;23.13;;;10.85;;
1412;SDS011;701;52.526;13.408;2023-03-20T17:33:40;21.45;;;10.75;;
1412;SDS011;701;52.526;13.408;2023-03-20T17:38:53;25.17;;;10.23;;
1412;SDS011;701;52.526;13.408;2023-03-20T17:41:20;25.27;;;10.35;;
1412;SDS011;701;52.526;13.408;2023-03-20T17:43:47;22.35;;;10.77;;
1412;SDS011;701;52.526;13.408;2023-03-20T17:46:28;23.25;;;10.73;;
1412;SDS011;701;52.526;13.408;2023-03-20T17:49:02;22.50;;;10.68;;
1412;SDS011;701;52.526;13.408;2023-03-20T17:51:30;21.67;;;10.70;;
1412;SDS011;701;52.526;13.408;2023-03-20T17:53:57;21.52;;;10.80;;
1412;SDS011;701;52.526;13.408;2023-03-20T17:56:23;22.67;;;10.93;;
1412;SDS011;701;52.526;13.408;2023-03-20T17:58:54;21.55;;;10.65;;
1412;SDS011;701;52.526;13.408;2023-03-20T18:01:30;20.35;;;10.38;;
1412;SDS011;701;52.526;13.408;2023-03-20T18:03:56;24.87;;;10.83;;
1412;SDS011;701;52.526;13.408;2023-03-20T18:06:23;20.80;;;10.50;;
1412;SDS011;701;52.526;13.408;2023-03-20T18:08:51;20.83;;;10.25;;
1412;SDS011;701;52.526;13.408;2023-03-20T18:11:18;21.70;;;10.43;;